sensor_id;sensor_type;location;lat;lon;timestamp;P1;durP1;ratioP1;P2;durP2;ratioP2
13463;SDS011;6804;48.774;9.174;2024-03-23T00:55:50;2.90;;;2.40;;
13463;SDS011;6804;48.774;9.174;2024-03-23T00:58:18;3.40;;;2.60;;
13463;SDS011;6804;48.774;9.174;2024-03-23T01:00:46;3.57;;;2.33;;
13463;SDS011;6804;48.774;9.174;2024-03-23T01:03:12;4.47;;;2.60;;
13463;SDS011;6804;48.774;9.174;2024-03-23T01:05:46;3.63;;;2.57;;
13463;SDS011;6804;48.774;9.174;2024-03-23T01:08:14;2.40;;;2.20;;
13463;SDS011;6804;48.774;9.174;2024-03-23T01:10:42;4.13;;;3.00;;
13463;SDS011;6804;48.774;9.174;2024-03-23T01:13:22;3.57;;;2.20;;
13463;SDS011;6804;48.774;9.174;2024-03-23T01:15:52;4.10;;;2.40;;
13463;SDS011;6804;48.774;9.174;2024-03-23T01:18:20;3.87;;;2.50;;
13463;SDS011;6804;48.774;9.174;2024-03-23T01:20:49;3.50;;;2.27;;
13463;SDS011;6804;48.774;9.174;2024-03-23T01:23:17;2.60;;;2.23;;
13463;SDS011;6804;48.774;9.174;2024-03-23T01:25:51;2.83;;;2.40;;
13463;SDS011;6804;48.774;9.174;2024-03-23T01:28:20;3.13;;;2.23;;
13463;SDS011;6804;48.774;9.174;2024-03-23T01:30:48;4.50;;;2.40;;
13463;SDS011;6804;48.774;9.174;2024-03-23T01:33:16;3.23;;;2.30;;
13463;SDS011;6804;48.774;9.174;2024-03-23T01:35:43;2.57;;;2.20;;
13463;SDS011;6804;48.774;9.174;2024-03-23T01:38:12;4.40;;;2.40;;
13463;SDS011;6804;48.774;9.174;2024-03-23T01:40:38;3.67;;;2.40;;
13463;SDS011;6804;48.774;9.174;2024-03-23T01:43:10;5.93;;;4.37;;
13463;SDS011;6804;48.774;9.174;2024-03-23T01:45:39;4.47;;;2.83;;
13463;SDS011;6804;48.774;9.174;2024-03-23T01:48:09;4.50;;;2.30;;
13463;SDS011;6804;48.774;9.174;2024-03-23T01:50:37;3.47;;;2.20;;
13463;SDS011;6804;48.774;9.174;2024-03-23T01:53:08;3.63;;;2.37;;
13463;SDS011;6804;48.774;9.174;2024-03-23T01:58:24;2.80;;;1.93;;
13463;SDS011;6804;48.774;9.174;2024-03-23T02:00:54;3.80;;;2.23;;
13463;SDS011;6804;48.774;9.174;2024-03-23T02:03:27;3.70;;;1.83;;
13463;SDS011;6804;48.774;9.174;2024-03-23T02:06:00;2.93;;;2.20;;
13463;SDS011;6804;48.774;9.174;2024-03-23T02:08:28;3.23;;;2.07;;
13463;SDS011;6804;48.774;9.174;2024-03-23T02:11:01;3.23;;;2.00;;
13463;SDS011;6804;48.774;9.174;2024-03-23T02:13:29;4.27;;;2.40;;
13463;SDS011;6804;48.774;9.174;2024-03-23T02:15:59;1.97;;;1.77;;
13463;SDS011;6804;48.774;9.174;2024-03-23T02:18:31;2.73;;;2.00;;
13463;SDS011;6804;48.774;9.174;2024-03-23T02:20:58;3.63;;;1.90;;
13463;SDS011;6804;48.774;9.174;2024-03-23T02:26:14;3.23;;;1.87;;
13463;SDS011;6804;48.774;9.174;2024-03-23T02:28:44;2.20;;;2.00;;
13463;SDS011;6804;48.774;9.174;2024-03-23T02:31:10;3.37;;;1.87;;
13463;SDS011;6804;48.774;9.174;2024-03-23T02:33:41;2.50;;;2.30;;
13463;SDS011;6804;48.774;9.174;2024-03-23T02:36:10;3.30;;;1.83;;
13463;SDS011;6804;48.774;9.174;2024-03-23T02:38:40;3.43;;;1.90;;
13463;SDS011;6804;48.774;9.174;2024-03-23T02:41:11;2.07;;;1.90;;
13463;SDS011;6804;48.774;9.174;2024-03-23T02:43:44;3.53;;;1.93;;
13463;SDS011;6804;48.774;9.174;2024-03-23T02:46:11;3.67;;;2.30;;
13463;SDS011;6804;48.774;9.174;2024-03-23T02:48:42;2.60;;;2.10;;
13463;SDS011;6804;48.774;9.174;2024-03-23T02:51:09;3.97;;;2.33;;
13463;SDS011;6804;48.774;9.174;2024-03-23T02:56:24;2.87;;;1.93;;
13463;SDS011;6804;48.774;9.174;2024-03-23T02:58:54;4.10;;;2.40;;
13463;SDS011;6804;48.774;9.174;2024-03-23T03:04:07;3.70;;;2.07;;
13463;SDS011;6804;48.774;9.174;2024-03-23T03:06:36;3.57;;;2.20;;
13463;SDS011;6804;48.774;9.174;2024-03-23T03:09:06;3.10;;;1.70;;
13463;SDS011;6804;48.774;9.174;2024-03-23T03:11:36;4.43;;;2.30;;
13463;SDS011;6804;48.774;9.174;2024-03-23T03:16:49;2.80;;;1.87;;
13463;SDS011;6804;48.774;9.174;2024-03-23T03:19:17;4.10;;;2.30;;
13463;SDS011;6804;48.774;9.174;2024-03-23T03:21:51;2.67;;;2.07;;
13463;SDS011;6804;48.774;9.174;2024-03-23T03:24:23;5.00;;;2.07;;
13463;SDS011;6804;48.774;9.174;2024-03-23T03:26:52;2.50;;;2.00;;
13463;SDS011;6804;48.774;9.174;2024-03-23T03:29:20;2.83;;;2.20;;
13463;SDS011;6804;48.774;9.174;2024-03-23T03:31:46;3.27;;;2.00;;
13463;SDS011;6804;48.774;9.174;2024-03-23T03:34:15;2.97;;;2.03;;
13463;SDS011;6804;48.774;9.174;2024-03-23T03:36:42;2.90;;;2.10;;
13463;SDS011;6804;48.774;9.174;2024-03-23T03:39:10;5.90;;;2.23;;
13463;SDS011;6804;48.774;9.174;2024-03-23T03:41:40;3.00;;;1.63;;
13463;SDS011;6804;48.774;9.174;2024-03-23T03:44:12;2.30;;;1.80;;
13463;SDS011;6804;48.774;9.174;2024-03-23T03:46:40;1.90;;;1.63;;
13463;SDS011;6804;48.774;9.174;2024-03-23T03:49:08;3.07;;;1.73;;
13463;SDS011;6804;48.774;9.174;2024-03-23T03:51:35;3.07;;;1.90;;
13463;SDS011;6804;48.774;9.174;2024-03-23T03:54:02;3.37;;;2.20;;
13463;SDS011;6804;48.774;9.174;2024-03-23T03:56:29;2.93;;;2.10;;
13463;SDS011;6804;48.774;9.174;2024-03-23T03:58:59;2.40;;;2.20;;
13463;SDS011;6804;48.774;9.174;2024-03-23T04:01:31;4.10;;;2.27;;
13463;SDS011;6804;48.774;9.174;2024-03-23T04:04:01;2.67;;;2.03;;
13463;SDS011;6804;48.774;9.174;2024-03-23T04:06:28;2.73;;;2.10;;
13463;SDS011;6804;48.774;9.174;2024-03-23T04:08:55;2.53;;;1.90;;
13463;SDS011;6804;48.774;9.174;2024-03-23T04:11:24;2.83;;;1.90;;
13463;SDS011;6804;48.774;9.174;2024-03-23T04:13:54;4.33;;;2.10;;
13463;SDS011;6804;48.774;9.174;2024-03-23T04:16:27;3.77;;;2.37;;
13463;SDS011;6804;48.774;9.174;2024-03-23T04:19:04;3.50;;;2.17;;
13463;SDS011;6804;48.774;9.174;2024-03-23T04:21:31;1.90;;;1.77;;
13463;SDS011;6804;48.774;9.174;2024-03-23T04:23:59;3.90;;;1.90;;
13463;SDS011;6804;48.774;9.174;2024-03-23T04:26:40;2.37;;;1.97;;
13463;SDS011;6804;48.774;9.174;2024-03-23T04:29:08;2.67;;;2.10;;
13463;SDS011;6804;48.774;9.174;2024-03-23T04:31:34;3.33;;;1.90;;
13463;SDS011;6804;48.774;9.174;2024-03-23T04:34:01;4.00;;;2.23;;
13463;SDS011;6804;48.774;9.174;2024-03-23T04:36:32;4.53;;;2.20;;
13463;SDS011;6804;48.774;9.174;2024-03-23T04:39:00;2.87;;;2.33;;
13463;SDS011;6804;48.774;9.174;2024-03-23T04:41:29;2.30;;;1.80;;
13463;SDS011;6804;48.774;9.174;2024-03-23T04:43:59;3.83;;;2.30;;
13463;SDS011;6804;48.774;9.174;2024-03-23T04:46:28;3.73;;;2.20;;
13463;SDS011;6804;48.774;9.174;2024-03-23T04:48:58;2.57;;;2.23;;
13463;SDS011;6804;48.774;9.174;2024-03-23T04:51:27;2.63;;;2.43;;
13463;SDS011;6804;48.774;9.174;2024-03-23T04:54:01;3.77;;;2.90;;
13463;SDS011;6804;48.774;9.174;2024-03-23T04:56:32;3.80;;;3.13;;
13463;SDS011;6804;48.774;9.174;2024-03-23T04:59:02;3.77;;;3.30;;
13463;SDS011;6804;48.774;9.174;2024-03-23T05:01:30;3.17;;;2.87;;
13463;SDS011;6804;48.774;9.174;2024-03-23T05:04:03;5.10;;;3.53;;
13463;SDS011;6804;48.774;9.174;2024-03-23T05:06:32;6.17;;;4.60;;
13463;SDS011;6804;48.774;9.174;2024-03-23T05:08:59;4.90;;;3.87;;
13463;SDS011;6804;48.774;9.174;2024-03-23T05:11:31;6.80;;;4.17;;
13463;SDS011;6804;48.774;9.174;2024-03-23T05:13:58;6.73;;;5.50;;
13463;SDS011;6804;48.774;9.174;2024-03-23T05:16:25;5.83;;;5.10;;
13463;SDS011;6804;48.774;9.174;2024-03-23T05:18:52;6.60;;;5.73;;
13463;SDS011;6804;48.774;9.174;2024-03-23T05:21:20;10.17;;;6.57;;
13463;SDS011;6804;48.774;9.174;2024-03-23T05:23:54;10.03;;;7.00;;
13463;SDS011;6804;48.774;9.174;2024-03-23T05:26:28;9.33;;;7.10;;
13463;SDS011;6804;48.774;9.174;2024-03-23T05:28:54;8.57;;;7.63;;
13463;SDS011;6804;48.774;9.174;2024-03-23T05:31:25;8.83;;;7.73;;
13463;SDS011;6804;48.774;9.174;2024-03-23T05:33:52;9.10;;;7.57;;
13463;SDS011;6804;48.774;9.174;2024-03-23T05:36:20;8.73;;;7.20;;
13463;SDS011;6804;48.774;9.174;2024-03-23T05:38:49;9.63;;;8.20;;
13463;SDS011;6804;48.774;9.174;2024-03-23T05:41:20;9.27;;;8.00;;
13463;SDS011;6804;48.774;9.174;2024-03-23T05:43:49;9.40;;;7.50;;
13463;SDS011;6804;48.774;9.174;2024-03-23T05:46:16;11.60;;;8.30;;
13463;SDS011;6804;48.774;9.174;2024-03-23T05:48:43;9.40;;;7.53;;
13463;SDS011;6804;48.774;9.174;2024-03-23T05:51:10;10.37;;;7.97;;
13463;SDS011;6804;48.774;9.174;2024-03-23T05:53:38;8.53;;;7.57;;
13463;SDS011;6804;48.774;9.174;2024-03-23T05:58:56;7.37;;;6.63;;
13463;SDS011;6804;48.774;9.174;2024-03-23T06:01:28;6.20;;;5.57;;
13463;SDS011;6804;48.774;9.174;2024-03-23T06:03:58;5.20;;;4.07;;
13463;SDS011;6804;48.774;9.174;2024-03-23T06:06:26;4.53;;;3.97;;
13463;SDS011;6804;48.774;9.174;2024-03-23T06:08:56;5.13;;;3.90;;
13463;SDS011;6804;48.774;9.174;2024-03-23T06:11:24;4.93;;;4.43;;
13463;SDS011;6804;48.774;9.174;2024-03-23T06:13:58;4.97;;;3.90;;
13463;SDS011;6804;48.774;9.174;2024-03-23T06:16:27;5.00;;;4.27;;
13463;SDS011;6804;48.774;9.174;2024-03-23T06:18:55;3.70;;;2.70;;
13463;SDS011;6804;48.774;9.174;2024-03-23T06:21:24;4.30;;;3.20;;
13463;SDS011;6804;48.774;9.174;2024-03-23T06:23:51;3.60;;;3.13;;
13463;SDS011;6804;48.774;9.174;2024-03-23T06:26:18;2.87;;;2.40;;
13463;SDS011;6804;48.774;9.174;2024-03-23T06:28:47;2.60;;;1.90;;
13463;SDS011;6804;48.774;9.174;2024-03-23T06:31:17;2.20;;;1.97;;
13463;SDS011;6804;48.774;9.174;2024-03-23T06:33:46;2.30;;;1.80;;
13463;SDS011;6804;48.774;9.174;2024-03-23T06:36:16;2.00;;;1.53;;
13463;SDS011;6804;48.774;9.174;2024-03-23T06:38:45;2.60;;;1.30;;
13463;SDS011;6804;48.774;9.174;2024-03-23T06:41:12;2.43;;;1.43;;
13463;SDS011;6804;48.774;9.174;2024-03-23T06:43:48;1.80;;;1.27;;
13463;SDS011;6804;48.774;9.174;2024-03-23T06:46:20;2.03;;;1.30;;
13463;SDS011;6804;48.774;9.174;2024-03-23T06:48:48;1.33;;;1.10;;
13463;SDS011;6804;48.774;9.174;2024-03-23T06:51:18;1.07;;;0.80;;
13463;SDS011;6804;48.774;9.174;2024-03-23T06:53:49;1.20;;;0.70;;
13463;SDS011;6804;48.774;9.174;2024-03-23T06:56:20;1.60;;;0.97;;
13463;SDS011;6804;48.774;9.174;2024-03-23T06:58:47;0.60;;;0.60;;
13463;SDS011;6804;48.774;9.174;2024-03-23T07:01:21;0.80;;;0.50;;
13463;SDS011;6804;48.774;9.174;2024-03-23T07:06:42;0.70;;;0.70;;
13463;SDS011;6804;48.774;9.174;2024-03-23T07:09:10;0.40;;;0.40;;
13463;SDS011;6804;48.774;9.174;2024-03-23T07:11:37;0.60;;;0.50;;
13463;SDS011;6804;48.774;9.174;2024-03-23T07:14:08;0.50;;;0.40;;
13463;SDS011;6804;48.774;9.174;2024-03-23T07:16:40;2.40;;;0.60;;
13463;SDS011;6804;48.774;9.174;2024-03-23T07:19:08;1.20;;;0.50;;
13463;SDS011;6804;48.774;9.174;2024-03-23T07:21:38;0.40;;;0.40;;
13463;SDS011;6804;48.774;9.174;2024-03-23T07:24:05;0.40;;;0.40;;
13463;SDS011;6804;48.774;9.174;2024-03-23T07:26:37;0.50;;;0.50;;
13463;SDS011;6804;48.774;9.174;2024-03-23T07:29:06;0.40;;;0.40;;
13463;SDS011;6804;48.774;9.174;2024-03-23T07:31:34;0.40;;;0.40;;
13463;SDS011;6804;48.774;9.174;2024-03-23T07:36:52;0.97;;;0.40;;
13463;SDS011;6804;48.774;9.174;2024-03-23T07:39:19;0.93;;;0.50;;
13463;SDS011;6804;48.774;9.174;2024-03-23T07:41:49;0.77;;;0.40;;
13463;SDS011;6804;48.774;9.174;2024-03-23T07:44:16;1.67;;;0.50;;
13463;SDS011;6804;48.774;9.174;2024-03-23T07:46:44;1.27;;;0.50;;
13463;SDS011;6804;48.774;9.174;2024-03-23T07:52:08;1.43;;;0.40;;
13463;SDS011;6804;48.774;9.174;2024-03-23T07:54:34;0.60;;;0.47;;
13463;SDS011;6804;48.774;9.174;2024-03-23T07:57:05;2.07;;;0.43;;
13463;SDS011;6804;48.774;9.174;2024-03-23T07:59:34;0.50;;;0.50;;
13463;SDS011;6804;48.774;9.174;2024-03-23T08:02:06;0.50;;;0.50;;
13463;SDS011;6804;48.774;9.174;2024-03-23T08:04:33;0.60;;;0.50;;
13463;SDS011;6804;48.774;9.174;2024-03-23T08:07:04;1.40;;;0.57;;
13463;SDS011;6804;48.774;9.174;2024-03-23T08:09:34;0.60;;;0.60;;
13463;SDS011;6804;48.774;9.174;2024-03-23T08:12:02;0.60;;;0.60;;
13463;SDS011;6804;48.774;9.174;2024-03-23T08:14:29;0.70;;;0.60;;
13463;SDS011;6804;48.774;9.174;2024-03-23T08:16:58;1.23;;;0.70;;
13463;SDS011;6804;48.774;9.174;2024-03-23T08:19:25;1.93;;;0.77;;
13463;SDS011;6804;48.774;9.174;2024-03-23T08:21:54;1.10;;;0.60;;
13463;SDS011;6804;48.774;9.174;2024-03-23T08:24:22;1.50;;;0.70;;
13463;SDS011;6804;48.774;9.174;2024-03-23T08:26:50;0.60;;;0.60;;
13463;SDS011;6804;48.774;9.174;2024-03-23T08:29:18;0.80;;;0.60;;
13463;SDS011;6804;48.774;9.174;2024-03-23T08:31:50;0.60;;;0.60;;
13463;SDS011;6804;48.774;9.174;2024-03-23T08:34:21;0.90;;;0.80;;
13463;SDS011;6804;48.774;9.174;2024-03-23T08:36:51;1.03;;;0.67;;
13463;SDS011;6804;48.774;9.174;2024-03-23T08:39:17;1.20;;;0.70;;
13463;SDS011;6804;48.774;9.174;2024-03-23T08:41:54;0.70;;;0.70;;
13463;SDS011;6804;48.774;9.174;2024-03-23T08:44:23;0.73;;;0.70;;
13463;SDS011;6804;48.774;9.174;2024-03-23T08:46:50;0.80;;;0.80;;
13463;SDS011;6804;48.774;9.174;2024-03-23T08:52:06;0.90;;;0.90;;
13463;SDS011;6804;48.774;9.174;2024-03-23T08:54:35;1.30;;;0.90;;
13463;SDS011;6804;48.774;9.174;2024-03-23T08:57:04;1.00;;;0.90;;
13463;SDS011;6804;48.774;9.174;2024-03-23T08:59:34;1.13;;;0.70;;
13463;SDS011;6804;48.774;9.174;2024-03-23T09:04:46;1.47;;;0.90;;
13463;SDS011;6804;48.774;9.174;2024-03-23T09:10:02;1.20;;;1.10;;
13463;SDS011;6804;48.774;9.174;2024-03-23T09:15:21;1.20;;;1.10;;
13463;SDS011;6804;48.774;9.174;2024-03-23T09:17:49;1.37;;;1.20;;
13463;SDS011;6804;48.774;9.174;2024-03-23T09:20:16;2.97;;;1.50;;
13463;SDS011;6804;48.774;9.174;2024-03-23T09:22:48;3.03;;;1.90;;
13463;SDS011;6804;48.774;9.174;2024-03-23T09:25:14;2.93;;;1.90;;
13463;SDS011;6804;48.774;9.174;2024-03-23T09:27:42;2.27;;;1.60;;
13463;SDS011;6804;48.774;9.174;2024-03-23T09:30:15;6.13;;;2.20;;
13463;SDS011;6804;48.774;9.174;2024-03-23T09:32:44;2.67;;;1.90;;
13463;SDS011;6804;48.774;9.174;2024-03-23T09:35:11;3.43;;;2.23;;
13463;SDS011;6804;48.774;9.174;2024-03-23T09:37:42;4.47;;;2.13;;
13463;SDS011;6804;48.774;9.174;2024-03-23T09:40:11;4.93;;;2.10;;
13463;SDS011;6804;48.774;9.174;2024-03-23T09:42:42;4.60;;;2.20;;
13463;SDS011;6804;48.774;9.174;2024-03-23T09:45:20;4.60;;;2.13;;
13463;SDS011;6804;48.774;9.174;2024-03-23T09:47:53;4.83;;;1.97;;
13463;SDS011;6804;48.774;9.174;2024-03-23T09:50:24;4.10;;;2.13;;
13463;SDS011;6804;48.774;9.174;2024-03-23T09:52:54;5.47;;;2.10;;
13463;SDS011;6804;48.774;9.174;2024-03-23T09:55:22;4.47;;;2.23;;
13463;SDS011;6804;48.774;9.174;2024-03-23T09:57:53;5.57;;;2.50;;
13463;SDS011;6804;48.774;9.174;2024-03-23T10:00:24;5.30;;;2.37;;
13463;SDS011;6804;48.774;9.174;2024-03-23T10:05:40;2.93;;;2.50;;
13463;SDS011;6804;48.774;9.174;2024-03-23T10:08:18;4.70;;;2.60;;
13463;SDS011;6804;48.774;9.174;2024-03-23T10:10:52;5.67;;;2.70;;
13463;SDS011;6804;48.774;9.174;2024-03-23T10:13:26;4.83;;;2.50;;
13463;SDS011;6804;48.774;9.174;2024-03-23T10:18:52;5.83;;;2.50;;
13463;SDS011;6804;48.774;9.174;2024-03-23T10:21:22;6.03;;;2.33;;
13463;SDS011;6804;48.774;9.174;2024-03-23T10:26:35;6.93;;;2.67;;
13463;SDS011;6804;48.774;9.174;2024-03-23T10:29:05;4.80;;;2.30;;
13463;SDS011;6804;48.774;9.174;2024-03-23T10:31:38;4.23;;;2.17;;
13463;SDS011;6804;48.774;9.174;2024-03-23T10:34:07;4.27;;;2.10;;
13463;SDS011;6804;48.774;9.174;2024-03-23T10:36:35;5.37;;;2.80;;
13463;SDS011;6804;48.774;9.174;2024-03-23T10:39:07;3.20;;;1.97;;
13463;SDS011;6804;48.774;9.174;2024-03-23T10:41:36;5.60;;;2.30;;
13463;SDS011;6804;48.774;9.174;2024-03-23T10:46:55;4.27;;;2.30;;
13463;SDS011;6804;48.774;9.174;2024-03-23T10:49:27;5.87;;;2.50;;
13463;SDS011;6804;48.774;9.174;2024-03-23T10:51:58;6.10;;;2.70;;
13463;SDS011;6804;48.774;9.174;2024-03-23T10:54:27;5.20;;;2.87;;
13463;SDS011;6804;48.774;9.174;2024-03-23T10:57:00;4.90;;;2.63;;
13463;SDS011;6804;48.774;9.174;2024-03-23T10:59:33;4.63;;;2.10;;
13463;SDS011;6804;48.774;9.174;2024-03-23T11:02:04;8.10;;;3.03;;
13463;SDS011;6804;48.774;9.174;2024-03-23T11:04:35;5.97;;;2.27;;
13463;SDS011;6804;48.774;9.174;2024-03-23T11:07:05;3.53;;;1.60;;
13463;SDS011;6804;48.774;9.174;2024-03-23T11:09:56;5.27;;;1.80;;
13463;SDS011;6804;48.774;9.174;2024-03-23T11:12:28;3.17;;;1.67;;
13463;SDS011;6804;48.774;9.174;2024-03-23T11:15:04;4.17;;;2.10;;
13463;SDS011;6804;48.774;9.174;2024-03-23T11:17:38;3.10;;;2.03;;
13463;SDS011;6804;48.774;9.174;2024-03-23T11:20:06;3.70;;;2.00;;
13463;SDS011;6804;48.774;9.174;2024-03-23T11:22:45;3.73;;;2.00;;
13463;SDS011;6804;48.774;9.174;2024-03-23T11:25:15;2.97;;;2.00;;
13463;SDS011;6804;48.774;9.174;2024-03-23T11:27:44;2.17;;;1.63;;
13463;SDS011;6804;48.774;9.174;2024-03-23T11:30:16;4.30;;;1.93;;
13463;SDS011;6804;48.774;9.174;2024-03-23T11:32:46;2.60;;;1.70;;
13463;SDS011;6804;48.774;9.174;2024-03-23T11:35:33;3.37;;;2.00;;
13463;SDS011;6804;48.774;9.174;2024-03-23T11:38:05;3.53;;;2.03;;
13463;SDS011;6804;48.774;9.174;2024-03-23T11:40:37;2.00;;;1.50;;
13463;SDS011;6804;48.774;9.174;2024-03-23T11:43:05;2.13;;;1.67;;
13463;SDS011;6804;48.774;9.174;2024-03-23T11:45:38;4.07;;;2.30;;
13463;SDS011;6804;48.774;9.174;2024-03-23T11:48:22;3.70;;;1.77;;
13463;SDS011;6804;48.774;9.174;2024-03-23T11:50:54;1.73;;;1.40;;
13463;SDS011;6804;48.774;9.174;2024-03-23T11:53:24;3.40;;;1.60;;
13463;SDS011;6804;48.774;9.174;2024-03-23T11:55:56;1.87;;;1.33;;
13463;SDS011;6804;48.774;9.174;2024-03-23T11:58:26;4.23;;;1.67;;
13463;SDS011;6804;48.774;9.174;2024-03-23T12:00:55;3.20;;;1.50;;
13463;SDS011;6804;48.774;9.174;2024-03-23T12:03:27;4.67;;;1.43;;
13463;SDS011;6804;48.774;9.174;2024-03-23T12:05:57;3.30;;;1.30;;
13463;SDS011;6804;48.774;9.174;2024-03-23T12:08:29;5.33;;;1.53;;
13463;SDS011;6804;48.774;9.174;2024-03-23T12:11:06;2.93;;;1.40;;
13463;SDS011;6804;48.774;9.174;2024-03-23T12:13:37;3.93;;;1.40;;
13463;SDS011;6804;48.774;9.174;2024-03-23T12:16:11;3.27;;;1.30;;
13463;SDS011;6804;48.774;9.174;2024-03-23T12:18:43;1.73;;;1.10;;
13463;SDS011;6804;48.774;9.174;2024-03-23T12:21:17;2.87;;;1.23;;
13463;SDS011;6804;48.774;9.174;2024-03-23T12:23:48;3.30;;;1.50;;
13463;SDS011;6804;48.774;9.174;2024-03-23T12:26:18;3.37;;;1.40;;
13463;SDS011;6804;48.774;9.174;2024-03-23T12:28:50;4.87;;;1.73;;
13463;SDS011;6804;48.774;9.174;2024-03-23T12:31:17;3.00;;;1.40;;
13463;SDS011;6804;48.774;9.174;2024-03-23T12:39:45;4.57;;;1.70;;
13463;SDS011;6804;48.774;9.174;2024-03-23T12:42:13;4.37;;;1.73;;
13463;SDS011;6804;48.774;9.174;2024-03-23T12:44:46;3.80;;;1.73;;
13463;SDS011;6804;48.774;9.174;2024-03-23T12:47:15;4.83;;;2.13;;
13463;SDS011;6804;48.774;9.174;2024-03-23T12:49:43;7.77;;;2.10;;
13463;SDS011;6804;48.774;9.174;2024-03-23T12:52:16;4.63;;;2.10;;
13463;SDS011;6804;48.774;9.174;2024-03-23T12:57:59;4.53;;;2.20;;
13463;SDS011;6804;48.774;9.174;2024-03-23T13:00:29;5.20;;;1.97;;
13463;SDS011;6804;48.774;9.174;2024-03-23T13:06:10;3.30;;;1.70;;
13463;SDS011;6804;48.774;9.174;2024-03-23T13:08:40;4.73;;;2.10;;
13463;SDS011;6804;48.774;9.174;2024-03-23T13:11:08;3.20;;;1.60;;
13463;SDS011;6804;48.774;9.174;2024-03-23T13:13:39;4.17;;;1.90;;
13463;SDS011;6804;48.774;9.174;2024-03-23T13:16:10;7.53;;;2.30;;
13463;SDS011;6804;48.774;9.174;2024-03-23T13:18:38;4.53;;;1.90;;
13463;SDS011;6804;48.774;9.174;2024-03-23T13:21:08;4.63;;;2.37;;
13463;SDS011;6804;48.774;9.174;2024-03-23T13:23:36;6.47;;;2.37;;
13463;SDS011;6804;48.774;9.174;2024-03-23T13:26:09;5.20;;;2.43;;
13463;SDS011;6804;48.774;9.174;2024-03-23T13:28:39;7.63;;;2.20;;
13463;SDS011;6804;48.774;9.174;2024-03-23T13:31:09;6.37;;;2.20;;
13463;SDS011;6804;48.774;9.174;2024-03-23T13:33:39;4.17;;;2.00;;
13463;SDS011;6804;48.774;9.174;2024-03-23T13:36:10;3.87;;;1.70;;
13463;SDS011;6804;48.774;9.174;2024-03-23T13:38:39;3.57;;;1.70;;
13463;SDS011;6804;48.774;9.174;2024-03-23T13:41:11;3.57;;;1.57;;
13463;SDS011;6804;48.774;9.174;2024-03-23T13:43:39;5.87;;;1.97;;
13463;SDS011;6804;48.774;9.174;2024-03-23T13:46:08;3.43;;;1.47;;
13463;SDS011;6804;48.774;9.174;2024-03-23T13:51:24;4.10;;;1.70;;
13463;SDS011;6804;48.774;9.174;2024-03-23T13:53:58;2.47;;;1.60;;
13463;SDS011;6804;48.774;9.174;2024-03-23T13:56:30;3.47;;;1.80;;
13463;SDS011;6804;48.774;9.174;2024-03-23T13:58:58;3.53;;;1.47;;
13463;SDS011;6804;48.774;9.174;2024-03-23T14:01:27;4.77;;;2.17;;
13463;SDS011;6804;48.774;9.174;2024-03-23T14:04:00;3.43;;;1.47;;
13463;SDS011;6804;48.774;9.174;2024-03-23T14:06:27;3.10;;;1.60;;
13463;SDS011;6804;48.774;9.174;2024-03-23T14:08:56;3.90;;;1.70;;
13463;SDS011;6804;48.774;9.174;2024-03-23T14:11:24;3.57;;;1.60;;
13463;SDS011;6804;48.774;9.174;2024-03-23T14:13:59;4.57;;;1.63;;
13463;SDS011;6804;48.774;9.174;2024-03-23T14:16:26;4.30;;;1.73;;
13463;SDS011;6804;48.774;9.174;2024-03-23T14:18:54;2.47;;;1.70;;
13463;SDS011;6804;48.774;9.174;2024-03-23T14:21:21;2.67;;;1.17;;
13463;SDS011;6804;48.774;9.174;2024-03-23T14:26:55;1.57;;;1.03;;
13463;SDS011;6804;48.774;9.174;2024-03-23T14:29:23;2.10;;;0.90;;
13463;SDS011;6804;48.774;9.174;2024-03-23T14:31:53;1.60;;;1.00;;
13463;SDS011;6804;48.774;9.174;2024-03-23T14:34:25;3.03;;;1.20;;
13463;SDS011;6804;48.774;9.174;2024-03-23T14:36:56;2.00;;;1.10;;
13463;SDS011;6804;48.774;9.174;2024-03-23T14:39:24;1.50;;;1.07;;
13463;SDS011;6804;48.774;9.174;2024-03-23T14:41:55;2.60;;;1.50;;
13463;SDS011;6804;48.774;9.174;2024-03-23T14:44:23;1.13;;;0.90;;
13463;SDS011;6804;48.774;9.174;2024-03-23T14:46:52;2.63;;;1.53;;
13463;SDS011;6804;48.774;9.174;2024-03-23T14:49:22;2.97;;;1.33;;
13463;SDS011;6804;48.774;9.174;2024-03-23T14:51:52;4.07;;;1.43;;
13463;SDS011;6804;48.774;9.174;2024-03-23T14:54:24;2.33;;;1.30;;
13463;SDS011;6804;48.774;9.174;2024-03-23T14:56:54;2.70;;;1.17;;
13463;SDS011;6804;48.774;9.174;2024-03-23T14:59:25;2.70;;;1.40;;
13463;SDS011;6804;48.774;9.174;2024-03-23T15:01:55;3.43;;;1.47;;
13463;SDS011;6804;48.774;9.174;2024-03-23T15:04:22;2.17;;;0.93;;
13463;SDS011;6804;48.774;9.174;2024-03-23T15:06:50;3.00;;;1.23;;
13463;SDS011;6804;48.774;9.174;2024-03-23T15:09:17;3.37;;;1.50;;
13463;SDS011;6804;48.774;9.174;2024-03-23T15:11:53;3.23;;;1.40;;
13463;SDS011;6804;48.774;9.174;2024-03-23T15:14:21;5.53;;;1.60;;
13463;SDS011;6804;48.774;9.174;2024-03-23T15:16:52;3.03;;;1.10;;
13463;SDS011;6804;48.774;9.174;2024-03-23T15:19:21;2.93;;;0.90;;
13463;SDS011;6804;48.774;9.174;2024-03-23T15:21:51;3.27;;;1.60;;
13463;SDS011;6804;48.774;9.174;2024-03-23T15:24:24;4.47;;;1.47;;
13463;SDS011;6804;48.774;9.174;2024-03-23T15:26:52;4.93;;;1.40;;
13463;SDS011;6804;48.774;9.174;2024-03-23T15:29:25;3.93;;;1.30;;
13463;SDS011;6804;48.774;9.174;2024-03-23T15:31:54;3.33;;;1.50;;
13463;SDS011;6804;48.774;9.174;2024-03-23T15:34:21;3.73;;;1.30;;
13463;SDS011;6804;48.774;9.174;2024-03-23T15:36:51;2.57;;;1.40;;
13463;SDS011;6804;48.774;9.174;2024-03-23T15:39:17;2.50;;;1.17;;
13463;SDS011;6804;48.774;9.174;2024-03-23T15:41:47;2.47;;;1.60;;
13463;SDS011;6804;48.774;9.174;2024-03-23T15:44:15;2.70;;;0.90;;
13463;SDS011;6804;48.774;9.174;2024-03-23T15:46:45;2.83;;;1.47;;
13463;SDS011;6804;48.774;9.174;2024-03-23T15:49:12;3.27;;;1.60;;
13463;SDS011;6804;48.774;9.174;2024-03-23T15:51:44;2.27;;;1.47;;
13463;SDS011;6804;48.774;9.174;2024-03-23T15:54:15;1.50;;;1.10;;
13463;SDS011;6804;48.774;9.174;2024-03-23T15:56:46;3.47;;;1.40;;
13463;SDS011;6804;48.774;9.174;2024-03-23T15:59:16;5.33;;;1.87;;
13463;SDS011;6804;48.774;9.174;2024-03-23T16:01:46;3.47;;;1.70;;
13463;SDS011;6804;48.774;9.174;2024-03-23T16:04:13;3.13;;;1.37;;
13463;SDS011;6804;48.774;9.174;2024-03-23T16:09:29;2.60;;;1.37;;
13463;SDS011;6804;48.774;9.174;2024-03-23T16:12:02;4.33;;;1.50;;
13463;SDS011;6804;48.774;9.174;2024-03-23T16:14:36;1.83;;;1.17;;
13463;SDS011;6804;48.774;9.174;2024-03-23T16:17:07;2.27;;;1.10;;
13463;SDS011;6804;48.774;9.174;2024-03-23T16:19:34;3.43;;;1.30;;
13463;SDS011;6804;48.774;9.174;2024-03-23T16:22:05;2.23;;;1.23;;
13463;SDS011;6804;48.774;9.174;2024-03-23T16:24:35;4.50;;;1.77;;
13463;SDS011;6804;48.774;9.174;2024-03-23T16:27:03;3.57;;;2.10;;
13463;SDS011;6804;48.774;9.174;2024-03-23T16:29:32;2.00;;;1.20;;
13463;SDS011;6804;48.774;9.174;2024-03-23T16:32:00;3.50;;;1.00;;
13463;SDS011;6804;48.774;9.174;2024-03-23T16:34:29;1.57;;;1.03;;
13463;SDS011;6804;48.774;9.174;2024-03-23T16:36:58;2.07;;;1.00;;
13463;SDS011;6804;48.774;9.174;2024-03-23T16:39:25;2.47;;;1.27;;
13463;SDS011;6804;48.774;9.174;2024-03-23T16:41:53;3.13;;;1.70;;
13463;SDS011;6804;48.774;9.174;2024-03-23T16:44:20;2.17;;;1.23;;
13463;SDS011;6804;48.774;9.174;2024-03-23T16:46:54;2.60;;;1.23;;
13463;SDS011;6804;48.774;9.174;2024-03-23T16:49:22;1.60;;;1.00;;
13463;SDS011;6804;48.774;9.174;2024-03-23T16:51:54;1.70;;;1.10;;
13463;SDS011;6804;48.774;9.174;2024-03-23T16:54:20;1.10;;;0.60;;
13463;SDS011;6804;48.774;9.174;2024-03-23T16:56:50;1.97;;;0.90;;
13463;SDS011;6804;48.774;9.174;2024-03-23T16:59:21;2.93;;;1.20;;
13463;SDS011;6804;48.774;9.174;2024-03-23T17:01:56;1.50;;;1.00;;
13463;SDS011;6804;48.774;9.174;2024-03-23T17:04:26;2.17;;;0.90;;
13463;SDS011;6804;48.774;9.174;2024-03-23T17:06:57;2.43;;;1.80;;
13463;SDS011;6804;48.774;9.174;2024-03-23T17:09:27;4.67;;;1.63;;
13463;SDS011;6804;48.774;9.174;2024-03-23T17:11:59;3.53;;;1.50;;
13463;SDS011;6804;48.774;9.174;2024-03-23T17:14:27;4.77;;;2.27;;
13463;SDS011;6804;48.774;9.174;2024-03-23T17:16:56;3.77;;;1.70;;
13463;SDS011;6804;48.774;9.174;2024-03-23T17:19:26;2.83;;;1.60;;